sensor_id;sensor_type;location;lat;lon;timestamp;temperature;humidity
13744;DHT22;6943;52.368;9.966;2022-11-15T00:00:07;7.20;99.90
13744;DHT22;6943;52.368;9.966;2022-11-15T00:02:32;6.80;99.90
13744;DHT22;6943;52.368;9.966;2022-11-15T00:04:58;7.30;99.90
13744;DHT22;6943;52.368;9.966;2022-11-15T00:07:23;6.70;99.90
13744;DHT22;6943;52.368;9.966;2022-11-15T00:09:49;6.90;99.90
13744;DHT22;6943;52.368;9.966;2022-11-15T00:12:14;6.80;99.90
13744;DHT22;6943;52.368;9.966;2022-11-15T00:14:40;6.80;99.90
13744;DHT22;6943;52.368;9.966;2022-11-15T00:17:06;6.60;99.90
13744;DHT22;6943;52.368;9.966;2022-11-15T00:19:31;7.40;99.90
13744;DHT22;6943;52.368;9.966;2022-11-15T00:21:57;7.00;99.90
13744;DHT22;6943;52.368;9.966;2022-11-15T00:24:22;7.60;99.90
13744;DHT22;6943;52.368;9.966;2022-11-15T00:26:48;9.00;99.90
13744;DHT22;6943;52.368;9.966;2022-11-15T00:29:14;7.20;99.90
13744;DHT22;6943;52.368;9.966;2022-11-15T00:31:39;6.90;99.90
13744;DHT22;6943;52.368;9.966;2022-11-15T00:34:05;7.00;99.90
13744;DHT22;6943;52.368;9.966;2022-11-15T00:36:33;7.20;99.90
13744;DHT22;6943;52.368;9.966;2022-11-15T00:38:59;8.00;99.90
13744;DHT22;6943;52.368;9.966;2022-11-15T00:41:25;7.10;99.90
13744;DHT22;6943;52.368;9.966;2022-11-15T00:43:51;8.40;99.90
13744;DHT22;6943;52.368;9.966;2022-11-15T00:46:16;8.50;99.90
13744;DHT22;6943;52.368;9.966;2022-11-15T00:48:42;7.90;99.90
13744;DHT22;6943;52.368;9.966;2022-11-15T00:51:07;9.20;99.90
13744;DHT22;6943;52.368;9.966;2022-11-15T00:53:33;7.40;99.90
13744;DHT22;6943;52.368;9.966;2022-11-15T00:55:58;8.70;99.90
13744;DHT22;6943;52.368;9.966;2022-11-15T00:58:24;7.30;99.90
13744;DHT22;6943;52.368;9.966;2022-11-15T01:00:50;7.10;99.90
13744;DHT22;6943;52.368;9.966;2022-11-15T01:03:15;10.50;99.90
13744;DHT22;6943;52.368;9.966;2022-11-15T01:05:41;7.80;99.90
13744;DHT22;6943;52.368;9.966;2022-11-15T01:08:10;7.30;99.90
13744;DHT22;6943;52.368;9.966;2022-11-15T01:10:37;7.30;99.90
13744;DHT22;6943;52.368;9.966;2022-11-15T01:13:02;7.70;99.90
13744;DHT22;6943;52.368;9.966;2022-11-15T01:15:28;7.10;99.90
13744;DHT22;6943;52.368;9.966;2022-11-15T01:17:53;7.50;99.90
13744;DHT22;6943;52.368;9.966;2022-11-15T01:20:20;7.50;99.90
13744;DHT22;6943;52.368;9.966;2022-11-15T01:22:45;7.30;99.90
13744;DHT22;6943;52.368;9.966;2022-11-15T01:25:11;7.50;99.90
13744;DHT22;6943;52.368;9.966;2022-11-15T01:27:37;7.40;99.90
13744;DHT22;6943;52.368;9.966;2022-11-15T01:30:02;9.20;99.90
13744;DHT22;6943;52.368;9.966;2022-11-15T01:32:29;7.40;99.90
13744;DHT22;6943;52.368;9.966;2022-11-15T01:34:54;7.10;99.90
13744;DHT22;6943;52.368;9.966;2022-11-15T01:37:20;7.40;99.90
13744;DHT22;6943;52.368;9.966;2022-11-15T01:39:45;8.80;99.90
13744;DHT22;6943;52.368;9.966;2022-11-15T01:42:14;7.40;99.90
13744;DHT22;6943;52.368;9.966;2022-11-15T01:44:47;7.10;99.90
13744;DHT22;6943;52.368;9.966;2022-11-15T01:47:29;7.10;99.90
13744;DHT22;6943;52.368;9.966;2022-11-15T01:50:05;7.30;99.90
13744;DHT22;6943;52.368;9.966;2022-11-15T01:52:33;7.20;99.90
13744;DHT22;6943;52.368;9.966;2022-11-15T01:55:02;8.10;99.90
13744;DHT22;6943;52.368;9.966;2022-11-15T01:57:28;7.00;99.90
13744;DHT22;6943;52.368;9.966;2022-11-15T01:59:54;7.60;99.90
13744;DHT22;6943;52.368;9.966;2022-11-15T02:02:20;6.60;99.90
13744;DHT22;6943;52.368;9.966;2022-11-15T02:04:47;6.80;99.90
13744;DHT22;6943;52.368;9.966;2022-11-15T02:07:16;6.70;99.90
13744;DHT22;6943;52.368;9.966;2022-11-15T02:09:46;6.80;99.90
13744;DHT22;6943;52.368;9.966;2022-11-15T02:12:14;6.60;99.90
13744;DHT22;6943;52.368;9.966;2022-11-15T02:14:42;6.90;99.90
13744;DHT22;6943;52.368;9.966;2022-11-15T02:17:16;6.60;99.90
13744;DHT22;6943;52.368;9.966;2022-11-15T02:25:47;7.10;99.90
13744;DHT22;6943;52.368;9.966;2022-11-15T02:28:23;6.70;99.90
13744;DHT22;6943;52.368;9.966;2022-11-15T02:31:18;6.70;99.90
13744;DHT22;6943;52.368;9.966;2022-11-15T02:34:15;6.90;99.90
13744;DHT22;6943;52.368;9.966;2022-11-15T02:36:58;6.90;99.90
13744;DHT22;6943;52.368;9.966;2022-11-15T02:39:41;6.90;99.90
13744;DHT22;6943;52.368;9.966;2022-11-15T02:42:23;6.90;99.90
13744;DHT22;6943;52.368;9.966;2022-11-15T02:45:12;6.80;99.90
13744;DHT22;6943;52.368;9.966;2022-11-15T02:47:43;6.90;99.90
13744;DHT22;6943;52.368;9.966;2022-11-15T02:50:12;6.60;99.90
13744;DHT22;6943;52.368;9.966;2022-11-15T02:52:38;6.60;99.90
13744;DHT22;6943;52.368;9.966;2022-11-15T02:55:04;6.60;99.90
13744;DHT22;6943;52.368;9.966;2022-11-15T02:57:49;6.80;99.90
13744;DHT22;6943;52.368;9.966;2022-11-15T03:00:20;6.80;99.90
13744;DHT22;6943;52.368;9.966;2022-11-15T03:05:58;6.80;99.90
13744;DHT22;6943;52.368;9.966;2022-11-15T03:09:28;9.40;99.90
13744;DHT22;6943;52.368;9.966;2022-11-15T03:11:22;6.90;99.90
13744;DHT22;6943;52.368;9.966;2022-11-15T03:13:52;6.80;99.90
13744;DHT22;6943;52.368;9.966;2022-11-15T03:16:29;6.70;99.90
13744;DHT22;6943;52.368;9.966;2022-11-15T03:21:34;7.10;99.90
13744;DHT22;6943;52.368;9.966;2022-11-15T03:24:03;7.70;99.90
13744;DHT22;6943;52.368;9.966;2022-11-15T03:26:31;7.20;99.90
13744;DHT22;6943;52.368;9.966;2022-11-15T03:29:06;7.00;99.90
13744;DHT22;6943;52.368;9.966;2022-11-15T03:31:36;7.60;99.90
13744;DHT22;6943;52.368;9.966;2022-11-15T03:36:44;7.60;99.90
13744;DHT22;6943;52.368;9.966;2022-11-15T03:39:11;7.40;99.90
13744;DHT22;6943;52.368;9.966;2022-11-15T03:41:46;7.60;99.90
13744;DHT22;6943;52.368;9.966;2022-11-15T03:46:57;8.20;99.90
13744;DHT22;6943;52.368;9.966;2022-11-15T03:49:29;8.20;99.90
13744;DHT22;6943;52.368;9.966;2022-11-15T03:51:57;9.20;99.90
13744;DHT22;6943;52.368;9.966;2022-11-15T03:54:23;8.30;99.90
13744;DHT22;6943;52.368;9.966;2022-11-15T03:56:49;8.50;99.90
13744;DHT22;6943;52.368;9.966;2022-11-15T03:59:14;8.60;99.90
13744;DHT22;6943;52.368;9.966;2022-11-15T04:01:40;8.60;99.90
13744;DHT22;6943;52.368;9.966;2022-11-15T04:04:05;8.60;99.90
13744;DHT22;6943;52.368;9.966;2022-11-15T04:06:31;8.50;99.90
13744;DHT22;6943;52.368;9.966;2022-11-15T04:08:56;8.40;99.90
13744;DHT22;6943;52.368;9.966;2022-11-15T04:11:22;8.20;99.90
13744;DHT22;6943;52.368;9.966;2022-11-15T04:13:47;8.20;99.90
13744;DHT22;6943;52.368;9.966;2022-11-15T04:16:13;8.20;99.90
13744;DHT22;6943;52.368;9.966;2022-11-15T04:18:38;8.30;99.90
13744;DHT22;6943;52.368;9.966;2022-11-15T04:21:04;8.40;99.90
13744;DHT22;6943;52.368;9.966;2022-11-15T04:23:48;8.60;99.90
13744;DHT22;6943;52.368;9.966;2022-11-15T04:26:32;8.60;99.90
13744;DHT22;6943;52.368;9.966;2022-11-15T04:28:58;8.90;99.90
13744;DHT22;6943;52.368;9.966;2022-11-15T04:31:42;8.90;99.90
13744;DHT22;6943;52.368;9.966;2022-11-15T04:34:07;8.90;99.90
13744;DHT22;6943;52.368;9.966;2022-11-15T04:36:33;9.00;99.90
13744;DHT22;6943;52.368;9.966;2022-11-15T04:39:31;9.00;99.90
13744;DHT22;6943;52.368;9.966;2022-11-15T04:41:56;9.20;99.90
13744;DHT22;6943;52.368;9.966;2022-11-15T04:44:22;9.30;99.90
13744;DHT22;6943;52.368;9.966;2022-11-15T04:46:47;9.20;99.90
13744;DHT22;6943;52.368;9.966;2022-11-15T04:49:13;9.20;99.90
13744;DHT22;6943;52.368;9.966;2022-11-15T04:51:38;9.30;99.90
13744;DHT22;6943;52.368;9.966;2022-11-15T04:54:04;9.40;99.90
13744;DHT22;6943;52.368;9.966;2022-11-15T04:56:29;9.40;99.90
13744;DHT22;6943;52.368;9.966;2022-11-15T04:58:55;9.30;99.90
13744;DHT22;6943;52.368;9.966;2022-11-15T05:01:20;9.20;99.90
13744;DHT22;6943;52.368;9.966;2022-11-15T05:03:46;9.10;99.90
13744;DHT22;6943;52.368;9.966;2022-11-15T05:06:30;9.00;99.90
13744;DHT22;6943;52.368;9.966;2022-11-15T05:08:56;9.10;99.90
13744;DHT22;6943;52.368;9.966;2022-11-15T05:11:22;9.10;99.90
13744;DHT22;6943;52.368;9.966;2022-11-15T05:13:47;9.20;99.90
13744;DHT22;6943;52.368;9.966;2022-11-15T05:16:13;9.10;99.90
13744;DHT22;6943;52.368;9.966;2022-11-15T05:18:39;9.20;99.90
13744;DHT22;6943;52.368;9.966;2022-11-15T05:21:07;9.20;99.90
13744;DHT22;6943;52.368;9.966;2022-11-15T05:23:33;9.20;99.90
13744;DHT22;6943;52.368;9.966;2022-11-15T05:26:00;9.20;99.90
13744;DHT22;6943;52.368;9.966;2022-11-15T05:28:26;9.20;99.90
13744;DHT22;6943;52.368;9.966;2022-11-15T05:30:52;9.20;99.90
13744;DHT22;6943;52.368;9.966;2022-11-15T05:33:18;9.20;99.90
13744;DHT22;6943;52.368;9.966;2022-11-15T05:35:46;9.20;99.90
13744;DHT22;6943;52.368;9.966;2022-11-15T05:38:14;9.20;99.90
13744;DHT22;6943;52.368;9.966;2022-11-15T05:40:39;9.20;99.90
13744;DHT22;6943;52.368;9.966;2022-11-15T05:43:05;9.30;99.90
13744;DHT22;6943;52.368;9.966;2022-11-15T05:45:32;9.30;99.90
13744;DHT22;6943;52.368;9.966;2022-11-15T05:48:00;9.40;99.90
13744;DHT22;6943;52.368;9.966;2022-11-15T05:50:29;9.40;99.90
13744;DHT22;6943;52.368;9.966;2022-11-15T05:52:55;9.40;99.90
13744;DHT22;6943;52.368;9.966;2022-11-15T05:55:21;9.50;99.90
13744;DHT22;6943;52.368;9.966;2022-11-15T05:57:46;9.50;99.90
13744;DHT22;6943;52.368;9.966;2022-11-15T06:00:12;9.50;99.90
13744;DHT22;6943;52.368;9.966;2022-11-15T06:02:38;9.50;99.90
13744;DHT22;6943;52.368;9.966;2022-11-15T06:05:04;9.40;99.90
13744;DHT22;6943;52.368;9.966;2022-11-15T06:07:30;9.40;99.90
13744;DHT22;6943;52.368;9.966;2022-11-15T06:09:55;9.30;99.90
13744;DHT22;6943;52.368;9.966;2022-11-15T06:12:21;9.30;99.90
13744;DHT22;6943;52.368;9.966;2022-11-15T06:14:47;9.20;99.90
13744;DHT22;6943;52.368;9.966;2022-11-15T06:17:12;9.20;99.90
13744;DHT22;6943;52.368;9.966;2022-11-15T06:19:38;9.20;99.90
13744;DHT22;6943;52.368;9.966;2022-11-15T06:22:03;9.20;99.90
13744;DHT22;6943;52.368;9.966;2022-11-15T06:24:29;9.20;99.90
13744;DHT22;6943;52.368;9.966;2022-11-15T06:26:54;10.40;99.90
13744;DHT22;6943;52.368;9.966;2022-11-15T06:29:20;9.20;99.90
13744;DHT22;6943;52.368;9.966;2022-11-15T06:31:45;9.30;99.90
13744;DHT22;6943;52.368;9.966;2022-11-15T06:34:11;9.30;99.90
13744;DHT22;6943;52.368;9.966;2022-11-15T06:36:37;9.30;99.90
13744;DHT22;6943;52.368;9.966;2022-11-15T06:39:03;9.30;99.90
13744;DHT22;6943;52.368;9.966;2022-11-15T06:41:29;9.30;99.90
13744;DHT22;6943;52.368;9.966;2022-11-15T06:43:56;9.30;99.90
13744;DHT22;6943;52.368;9.966;2022-11-15T06:46:21;9.30;99.90
13744;DHT22;6943;52.368;9.966;2022-11-15T06:48:47;9.30;99.90
13744;DHT22;6943;52.368;9.966;2022-11-15T06:51:14;9.30;99.90
13744;DHT22;6943;52.368;9.966;2022-11-15T06:53:39;9.30;99.90
13744;DHT22;6943;52.368;9.966;2022-11-15T06:56:06;9.40;99.90
13744;DHT22;6943;52.368;9.966;2022-11-15T06:58:33;9.40;99.90
13744;DHT22;6943;52.368;9.966;2022-11-15T07:01:04;9.40;99.90
13744;DHT22;6943;52.368;9.966;2022-11-15T07:03:30;9.50;99.90
13744;DHT22;6943;52.368;9.966;2022-11-15T07:05:57;9.60;99.90
13744;DHT22;6943;52.368;9.966;2022-11-15T07:08:24;9.80;99.90
13744;DHT22;6943;52.368;9.966;2022-11-15T07:10:51;9.80;99.90
13744;DHT22;6943;52.368;9.966;2022-11-15T07:13:17;9.90;99.90
13744;DHT22;6943;52.368;9.966;2022-11-15T07:15:43;9.90;99.90
13744;DHT22;6943;52.368;9.966;2022-11-15T07:18:09;10.00;99.90
13744;DHT22;6943;52.368;9.966;2022-11-15T07:20:34;10.00;99.90
13744;DHT22;6943;52.368;9.966;2022-11-15T07:23:01;10.00;99.90
13744;DHT22;6943;52.368;9.966;2022-11-15T07:25:27;10.10;99.90
13744;DHT22;6943;52.368;9.966;2022-11-15T07:27:56;10.20;99.90
13744;DHT22;6943;52.368;9.966;2022-11-15T07:30:22;10.20;99.90
13744;DHT22;6943;52.368;9.966;2022-11-15T07:32:55;10.20;99.90
13744;DHT22;6943;52.368;9.966;2022-11-15T07:35:21;10.40;99.90
13744;DHT22;6943;52.368;9.966;2022-11-15T07:37:58;10.50;99.90
13744;DHT22;6943;52.368;9.966;2022-11-15T07:40:24;10.70;99.90
13744;DHT22;6943;52.368;9.966;2022-11-15T07:42:50;11.40;99.90
13744;DHT22;6943;52.368;9.966;2022-11-15T07:45:19;12.30;99.90
13744;DHT22;6943;52.368;9.966;2022-11-15T07:47:49;13.10;99.90
13744;DHT22;6943;52.368;9.966;2022-11-15T07:50:16;13.20;83.30
13744;DHT22;6943;52.368;9.966;2022-11-15T07:52:43;13.20;69.90
13744;DHT22;6943;52.368;9.966;2022-11-15T07:55:09;13.30;17.30
13744;DHT22;6943;52.368;9.966;2022-11-15T07:57:35;13.30;8.90
13744;DHT22;6943;52.368;9.966;2022-11-15T08:00:01;12.90;99.20
13744;DHT22;6943;52.368;9.966;2022-11-15T08:02:27;12.50;99.90
13744;DHT22;6943;52.368;9.966;2022-11-15T08:04:53;12.00;99.90
13744;DHT22;6943;52.368;9.966;2022-11-15T08:07:18;11.70;99.90
13744;DHT22;6943;52.368;9.966;2022-11-15T08:09:44;11.30;99.90
13744;DHT22;6943;52.368;9.966;2022-11-15T08:12:09;11.10;99.90
13744;DHT22;6943;52.368;9.966;2022-11-15T08:14:35;10.90;99.90
13744;DHT22;6943;52.368;9.966;2022-11-15T08:17:01;10.80;99.90
13744;DHT22;6943;52.368;9.966;2022-11-15T08:19:26;10.80;99.90
13744;DHT22;6943;52.368;9.966;2022-11-15T08:21:52;10.90;99.90
13744;DHT22;6943;52.368;9.966;2022-11-15T08:24:17;11.00;99.90
13744;DHT22;6943;52.368;9.966;2022-11-15T08:26:43;11.10;99.90
13744;DHT22;6943;52.368;9.966;2022-11-15T08:29:09;11.30;99.90
13744;DHT22;6943;52.368;9.966;2022-11-15T08:31:36;11.60;99.90
13744;DHT22;6943;52.368;9.966;2022-11-15T08:34:02;11.60;99.90
13744;DHT22;6943;52.368;9.966;2022-11-15T08:36:28;11.70;99.90
13744;DHT22;6943;52.368;9.966;2022-11-15T08:38:54;11.60;99.90
13744;DHT22;6943;52.368;9.966;2022-11-15T08:41:28;11.80;99.90
13744;DHT22;6943;52.368;9.966;2022-11-15T08:43:55;12.40;99.90
13744;DHT22;6943;52.368;9.966;2022-11-15T08:46:20;13.40;99.40
13744;DHT22;6943;52.368;9.966;2022-11-15T08:48:46;14.30;1.00
13744;DHT22;6943;52.368;9.966;2022-11-15T08:51:11;14.80;99.90
13744;DHT22;6943;52.368;9.966;2022-11-15T08:53:37;15.00;1.00
13744;DHT22;6943;52.368;9.966;2022-11-15T08:56:07;15.20;1.00
13744;DHT22;6943;52.368;9.966;2022-11-15T08:58:33;15.40;99.90
13744;DHT22;6943;52.368;9.966;2022-11-15T09:00:58;15.60;99.90
13744;DHT22;6943;52.368;9.966;2022-11-15T09:03:24;15.90;51.40
13744;DHT22;6943;52.368;9.966;2022-11-15T09:05:57;15.80;99.90
13744;DHT22;6943;52.368;9.966;2022-11-15T09:08:24;15.90;1.00
13744;DHT22;6943;52.368;9.966;2022-11-15T09:10:50;16.10;1.00
13744;DHT22;6943;52.368;9.966;2022-11-15T09:13:16;16.20;2.10
13744;DHT22;6943;52.368;9.966;2022-11-15T09:15:42;15.70;99.90
13744;DHT22;6943;52.368;9.966;2022-11-15T09:18:08;15.60;99.90
13744;DHT22;6943;52.368;9.966;2022-11-15T09:20:33;15.80;99.90
13744;DHT22;6943;52.368;9.966;2022-11-15T09:23:02;16.00;1.00
13744;DHT22;6943;52.368;9.966;2022-11-15T09:25:29;15.60;99.90
13744;DHT22;6943;52.368;9.966;2022-11-15T09:27:55;15.30;1.00
13744;DHT22;6943;52.368;9.966;2022-11-15T09:30:21;15.00;1.00
13744;DHT22;6943;52.368;9.966;2022-11-15T09:32:47;14.80;99.90
13744;DHT22;6943;52.368;9.966;2022-11-15T09:35:12;15.10;1.00
13744;DHT22;6943;52.368;9.966;2022-11-15T09:37:38;15.30;1.00
13744;DHT22;6943;52.368;9.966;2022-11-15T09:40:03;15.50;1.00
13744;DHT22;6943;52.368;9.966;2022-11-15T09:42:36;15.70;99.90
13744;DHT22;6943;52.368;9.966;2022-11-15T09:45:15;15.40;1.00
13744;DHT22;6943;52.368;9.966;2022-11-15T09:50:43;14.20;1.00
13744;DHT22;6943;52.368;9.966;2022-11-15T09:53:14;13.80;99.90
13744;DHT22;6943;52.368;9.966;2022-11-15T09:56:00;13.50;99.90
13744;DHT22;6943;52.368;9.966;2022-11-15T09:58:53;13.40;1.00
13744;DHT22;6943;52.368;9.966;2022-11-15T10:04:02;13.30;99.90
13744;DHT22;6943;52.368;9.966;2022-11-15T10:06:28;13.30;1.50
13744;DHT22;6943;52.368;9.966;2022-11-15T10:08:56;13.20;22.00
13744;DHT22;6943;52.368;9.966;2022-11-15T10:11:24;13.20;99.90
13744;DHT22;6943;52.368;9.966;2022-11-15T10:13:53;13.30;99.90
13744;DHT22;6943;52.368;9.966;2022-11-15T10:20:02;13.40;99.90
13744;DHT22;6943;52.368;9.966;2022-11-15T10:22:29;13.30;27.90
13744;DHT22;6943;52.368;9.966;2022-11-15T10:27:55;13.40;1.00
13744;DHT22;6943;52.368;9.966;2022-11-15T10:30:21;13.50;1.00
13744;DHT22;6943;52.368;9.966;2022-11-15T10:32:48;13.50;1.00
13744;DHT22;6943;52.368;9.966;2022-11-15T10:35:23;13.50;1.00
13744;DHT22;6943;52.368;9.966;2022-11-15T10:37:49;13.60;99.90
13744;DHT22;6943;52.368;9.966;2022-11-15T10:40:21;13.60;99.90
13744;DHT22;6943;52.368;9.966;2022-11-15T10:42:47;13.60;99.90
13744;DHT22;6943;52.368;9.966;2022-11-15T10:45:28;13.60;99.90
13744;DHT22;6943;52.368;9.966;2022-11-15T10:47:55;13.70;46.40
13744;DHT22;6943;52.368;9.966;2022-11-15T10:50:41;13.70;1.00
13744;DHT22;6943;52.368;9.966;2022-11-15T10:53:30;13.70;1.00
13744;DHT22;6943;52.368;9.966;2022-11-15T10:56:00;13.70;1.00
13744;DHT22;6943;52.368;9.966;2022-11-15T10:58:37;13.70;1.00
13744;DHT22;6943;52.368;9.966;2022-11-15T11:01:17;13.70;1.00
13744;DHT22;6943;52.368;9.966;2022-11-15T11:03:45;13.80;1.00
13744;DHT22;6943;52.368;9.966;2022-11-15T11:06:14;13.80;1.00
13744;DHT22;6943;52.368;9.966;2022-11-15T11:08:40;14.00;1.00
13744;DHT22;6943;52.368;9.966;2022-11-15T11:11:12;14.10;1.00
13744;DHT22;6943;52.368;9.966;2022-11-15T11:13:39;14.20;99.90
13744;DHT22;6943;52.368;9.966;2022-11-15T11:22:01;14.30;1.00
13744;DHT22;6943;52.368;9.966;2022-11-15T11:30:31;14.20;99.90
13744;DHT22;6943;52.368;9.966;2022-11-15T11:36:04;14.30;99.90
13744;DHT22;6943;52.368;9.966;2022-11-15T11:38:57;14.40;99.90
13744;DHT22;6943;52.368;9.966;2022-11-15T11:41:33;14.40;15.10
13744;DHT22;6943;52.368;9.966;2022-11-15T11:44:18;14.50;1.00
13744;DHT22;6943;52.368;9.966;2022-11-15T11:47:00;14.50;1.00
13744;DHT22;6943;52.368;9.966;2022-11-15T11:49:30;14.40;5.00
13744;DHT22;6943;52.368;9.966;2022-11-15T11:52:11;14.50;1.00
13744;DHT22;6943;52.368;9.966;2022-11-15T11:54:47;14.50;1.00
13744;DHT22;6943;52.368;9.966;2022-11-15T11:59:55;14.60;1.00
13744;DHT22;6943;52.368;9.966;2022-11-15T12:02:29;14.60;1.00
13744;DHT22;6943;52.368;9.966;2022-11-15T12:05:05;14.60;1.00
13744;DHT22;6943;52.368;9.966;2022-11-15T12:07:34;14.70;1.00
13744;DHT22;6943;52.368;9.966;2022-11-15T12:10:11;14.80;1.00
13744;DHT22;6943;52.368;9.966;2022-11-15T12:12:47;14.90;1.00
13744;DHT22;6943;52.368;9.966;2022-11-15T12:16:26;14.90;1.00
13744;DHT22;6943;52.368;9.966;2022-11-15T12:18:33;14.80;1.00
13744;DHT22;6943;52.368;9.966;2022-11-15T12:21:02;16.20;1.00
13744;DHT22;6943;52.368;9.966;2022-11-15T12:23:34;14.70;1.00
13744;DHT22;6943;52.368;9.966;2022-11-15T12:26:22;14.70;1.00
13744;DHT22;6943;52.368;9.966;2022-11-15T12:29:03;14.70;1.00
13744;DHT22;6943;52.368;9.966;2022-11-15T12:31:39;14.70;90.70
13744;DHT22;6943;52.368;9.966;2022-11-15T12:36:45;14.70;1.00
13744;DHT22;6943;52.368;9.966;2022-11-15T12:39:12;14.70;1.50
13744;DHT22;6943;52.368;9.966;2022-11-15T13:02:45;14.30;1.00
13744;DHT22;6943;52.368;9.966;2022-11-15T13:17:46;14.10;99.90
13744;DHT22;6943;52.368;9.966;2022-11-15T13:22:44;14.20;99.90
13744;DHT22;6943;52.368;9.966;2022-11-15T13:25:54;14.20;1.00
13744;DHT22;6943;52.368;9.966;2022-11-15T13:28:29;14.20;1.00
13744;DHT22;6943;52.368;9.966;2022-11-15T13:31:16;14.30;1.00
13744;DHT22;6943;52.368;9.966;2022-11-15T13:33:44;14.30;1.00
13744;DHT22;6943;52.368;9.966;2022-11-15T13:36:19;14.20;94.80
13744;DHT22;6943;52.368;9.966;2022-11-15T13:38:58;14.20;99.90
13744;DHT22;6943;52.368;9.966;2022-11-15T13:41:35;14.30;1.00
13744;DHT22;6943;52.368;9.966;2022-11-15T13:44:02;14.20;99.90
13744;DHT22;6943;52.368;9.966;2022-11-15T13:46:30;14.20;1.00
13744;DHT22;6943;52.368;9.966;2022-11-15T13:49:04;14.30;1.00
13744;DHT22;6943;52.368;9.966;2022-11-15T13:51:34;14.30;99.90
13744;DHT22;6943;52.368;9.966;2022-11-15T13:56:41;14.30;1.00
13744;DHT22;6943;52.368;9.966;2022-11-15T13:59:20;14.30;99.90
13744;DHT22;6943;52.368;9.966;2022-11-15T14:01:48;14.30;1.00
13744;DHT22;6943;52.368;9.966;2022-11-15T14:04:19;14.30;99.90
13744;DHT22;6943;52.368;9.966;2022-11-15T14:06:48;15.90;58.70
13744;DHT22;6943;52.368;9.966;2022-11-15T14:09:34;14.30;1.00
13744;DHT22;6943;52.368;9.966;2022-11-15T14:12:02;14.20;58.00
13744;DHT22;6943;52.368;9.966;2022-11-15T14:14:28;14.20;99.90
13744;DHT22;6943;52.368;9.966;2022-11-15T14:16:57;14.30;99.90
13744;DHT22;6943;52.368;9.966;2022-11-15T14:22:24;14.30;1.00
13744;DHT22;6943;52.368;9.966;2022-11-15T14:25:16;14.30;75.00
13744;DHT22;6943;52.368;9.966;2022-11-15T14:27:45;14.30;1.00
13744;DHT22;6943;52.368;9.966;2022-11-15T14:30:29;14.30;99.90
13744;DHT22;6943;52.368;9.966;2022-11-15T14:32:55;14.30;99.90
13744;DHT22;6943;52.368;9.966;2022-11-15T14:35:22;14.30;1.30
13744;DHT22;6943;52.368;9.966;2022-11-15T14:37:49;14.30;99.90
13744;DHT22;6943;52.368;9.966;2022-11-15T14:40:17;14.30;99.90
13744;DHT22;6943;52.368;9.966;2022-11-15T14:42:44;14.20;24.90
13744;DHT22;6943;52.368;9.966;2022-11-15T14:45:13;14.20;1.00
13744;DHT22;6943;52.368;9.966;2022-11-15T14:47:40;14.10;96.30
13744;DHT22;6943;52.368;9.966;2022-11-15T14:50:06;14.10;6.10
13744;DHT22;6943;52.368;9.966;2022-11-15T14:52:32;14.10;99.90
13744;DHT22;6943;52.368;9.966;2022-11-15T14:55:04;14.10;99.90
13744;DHT22;6943;52.368;9.966;2022-11-15T14:57:35;14.00;99.90
13744;DHT22;6943;52.368;9.966;2022-11-15T15:00:01;14.00;39.40
13744;DHT22;6943;52.368;9.966;2022-11-15T15:02:27;14.00;99.60
13744;DHT22;6943;52.368;9.966;2022-11-15T15:04:53;13.90;1.00
13744;DHT22;6943;52.368;9.966;2022-11-15T15:07:19;13.90;99.90
13744;DHT22;6943;52.368;9.966;2022-11-15T15:09:45;13.90;99.90
13744;DHT22;6943;52.368;9.966;2022-11-15T15:12:19;13.90;99.90
13744;DHT22;6943;52.368;9.966;2022-11-15T15:14:46;13.80;1.00
13744;DHT22;6943;52.368;9.966;2022-11-15T15:17:12;13.70;1.00
13744;DHT22;6943;52.368;9.966;2022-11-15T15:19:37;13.60;1.00
13744;DHT22;6943;52.368;9.966;2022-11-15T15:22:03;13.40;1.00
13744;DHT22;6943;52.368;9.966;2022-11-15T15:24:28;13.20;99.90
13744;DHT22;6943;52.368;9.966;2022-11-15T15:26:54;13.10;1.00
13744;DHT22;6943;52.368;9.966;2022-11-15T15:29:19;13.00;1.00
13744;DHT22;6943;52.368;9.966;2022-11-15T15:31:45;12.90;1.00
13744;DHT22;6943;52.368;9.966;2022-11-15T15:34:11;12.90;1.00
13744;DHT22;6943;52.368;9.966;2022-11-15T15:36:36;12.80;1.00
13744;DHT22;6943;52.368;9.966;2022-11-15T15:39:02;12.80;1.00
13744;DHT22;6943;52.368;9.966;2022-11-15T15:41:27;12.70;1.00
13744;DHT22;6943;52.368;9.966;2022-11-15T15:43:53;12.70;1.00
13744;DHT22;6943;52.368;9.966;2022-11-15T15:46:19;12.70;1.00
13744;DHT22;6943;52.368;9.966;2022-11-15T15:48:45;12.70;1.00
13744;DHT22;6943;52.368;9.966;2022-11-15T15:51:11;12.60;1.00
13744;DHT22;6943;52.368;9.966;2022-11-15T15:53:37;12.60;1.00
13744;DHT22;6943;52.368;9.966;2022-11-15T15:56:03;12.60;1.00
13744;DHT22;6943;52.368;9.966;2022-11-15T15:58:28;12.50;1.00
13744;DHT22;6943;52.368;9.966;2022-11-15T16:00:54;12.40;1.00
13744;DHT22;6943;52.368;9.966;2022-11-15T16:03:20;12.40;1.00
13744;DHT22;6943;52.368;9.966;2022-11-15T16:05:45;12.30;1.00
13744;DHT22;6943;52.368;9.966;2022-11-15T16:08:22;12.30;1.00
13744;DHT22;6943;52.368;9.966;2022-11-15T16:10:49;12.30;1.00
13744;DHT22;6943;52.368;9.966;2022-11-15T16:13:14;12.50;37.50
13744;DHT22;6943;52.368;9.966;2022-11-15T16:15:40;12.10;62.60
13744;DHT22;6943;52.368;9.966;2022-11-15T16:18:06;12.10;91.70
13744;DHT22;6943;52.368;9.966;2022-11-15T16:20:39;12.10;65.40
13744;DHT22;6943;52.368;9.966;2022-11-15T16:23:09;12.10;67.80
13744;DHT22;6943;52.368;9.966;2022-11-15T16:25:42;12.10;70.70
13744;DHT22;6943;52.368;9.966;2022-11-15T16:30:41;12.00;99.90
13744;DHT22;6943;52.368;9.966;2022-11-15T16:33:07;11.90;99.90
13744;DHT22;6943;52.368;9.966;2022-11-15T16:35:32;11.90;99.90
13744;DHT22;6943;52.368;9.966;2022-11-15T16:37:58;11.80;99.90
13744;DHT22;6943;52.368;9.966;2022-11-15T16:40:32;11.80;99.90
13744;DHT22;6943;52.368;9.966;2022-11-15T16:42:58;11.90;99.90
13744;DHT22;6943;52.368;9.966;2022-11-15T16:45:25;11.90;99.90
13744;DHT22;6943;52.368;9.966;2022-11-15T16:47:52;11.90;99.90
13744;DHT22;6943;52.368;9.966;2022-11-15T16:50:25;12.30;99.90
13744;DHT22;6943;52.368;9.966;2022-11-15T16:52:56;11.90;99.90
13744;DHT22;6943;52.368;9.966;2022-11-15T16:55:24;11.90;99.90
13744;DHT22;6943;52.368;9.966;2022-11-15T16:57:49;11.90;99.90
13744;DHT22;6943;52.368;9.966;2022-11-15T17:00:16;11.90;99.90
13744;DHT22;6943;52.368;9.966;2022-11-15T17:02:44;11.90;99.90
13744;DHT22;6943;52.368;9.966;2022-11-15T17:05:10;11.90;99.90
13744;DHT22;6943;52.368;9.966;2022-11-15T17:07:36;11.90;99.90
13744;DHT22;6943;52.368;9.966;2022-11-15T17:10:02;11.90;99.90
13744;DHT22;6943;52.368;9.966;2022-11-15T17:12:27;11.80;99.90
13744;DHT22;6943;52.368;9.966;2022-11-15T17:14:55;11.80;99.90
13744;DHT22;6943;52.368;9.966;2022-11-15T17:17:21;11.70;99.90
13744;DHT22;6943;52.368;9.966;2022-11-15T17:19:46;11.70;99.90
13744;DHT22;6943;52.368;9.966;2022-11-15T17:22:12;11.70;99.90
13744;DHT22;6943;52.368;9.966;2022-11-15T17:24:37;11.60;99.90
13744;DHT22;6943;52.368;9.966;2022-11-15T17:27:03;11.60;99.90
13744;DHT22;6943;52.368;9.966;2022-11-15T17:29:28;11.60;99.90
13744;DHT22;6943;52.368;9.966;2022-11-15T17:31:54;11.60;99.90
13744;DHT22;6943;52.368;9.966;2022-11-15T17:34:20;11.60;99.90
13744;DHT22;6943;52.368;9.966;2022-11-15T17:36:45;11.70;99.90
13744;DHT22;6943;52.368;9.966;2022-11-15T17:39:11;11.70;99.90
13744;DHT22;6943;52.368;9.966;2022-11-15T17:41:37;11.70;99.90